createdAt,value
2019-03-06T00:01:27.818Z,98560.22
2019-03-06T00:06:33.477Z,98559.38
2019-03-06T00:11:39.661Z,98564.36
2019-03-06T00:16:45.264Z,98575.95
2019-03-06T00:21:51.364Z,98573.63
2019-03-06T00:26:57.030Z,98576.30
2019-03-06T00:32:02.667Z,98568.41
2019-03-06T00:37:08.445Z,98561.78
2019-03-06T00:42:15.691Z,98575.22
2019-03-06T00:47:21.477Z,98570.47
2019-03-06T00:52:27.083Z,98559.77
2019-03-06T00:57:32.822Z,98550.04
2019-03-06T01:02:39.596Z,98552.86
2019-03-06T01:07:46.452Z,98547.59
2019-03-06T01:12:52.184Z,98555.89
2019-03-06T01:17:57.926Z,98548.13
2019-03-06T01:23:03.539Z,98512.24
2019-03-06T01:28:09.200Z,98502.70
2019-03-06T01:33:19.235Z,98500.34
2019-03-06T01:38:45.138Z,98502.95
2019-03-06T01:43:55.335Z,98510.09
2019-03-06T01:49:01.151Z,98520.58
2019-03-06T01:54:06.938Z,98528.48
2019-03-06T01:59:12.770Z,98490.11
2019-03-06T02:04:18.584Z,98463.63
2019-03-06T02:09:27.297Z,98469.05
2019-03-06T02:14:33.412Z,98483.30
2019-03-06T02:19:39.278Z,98494.80
2019-03-06T02:24:45.456Z,98488.61
2019-03-06T02:29:51.322Z,98471.13
2019-03-06T02:34:57.336Z,98481.33
2019-03-06T02:40:03.277Z,98498.55
2019-03-06T02:45:20.416Z,98499.31
2019-03-06T02:50:26.127Z,98514.33
2019-03-06T02:55:31.923Z,98516.94
2019-03-06T03:00:39.319Z,98513.25
2019-03-06T03:05:58.535Z,98535.78
2019-03-06T03:11:05.844Z,98551.30
2019-03-06T03:16:11.615Z,98561.87
2019-03-06T03:21:17.694Z,98557.92
2019-03-06T03:26:23.564Z,98569.86
2019-03-06T03:31:29.636Z,98576.59
2019-03-06T03:36:35.451Z,98581.23
2019-03-06T03:41:41.691Z,98588.97
2019-03-06T03:46:47.389Z,98594.92
2019-03-06T03:51:53.500Z,98589.32
2019-03-06T03:56:59.301Z,98591.08
2019-03-06T04:02:05.502Z,98593.52
2019-03-06T04:07:11.311Z,98617.10
2019-03-06T04:12:17.487Z,98622.19
2019-03-06T04:17:23.197Z,98638.45
2019-03-06T04:22:29.369Z,98634.12
2019-03-06T04:27:35.121Z,98649.50
2019-03-06T04:32:41.063Z,98634.45
2019-03-06T04:37:46.751Z,98660.53
2019-03-06T04:42:52.967Z,98666.80
2019-03-06T04:47:58.665Z,98675.89
2019-03-06T04:53:04.733Z,98668.44
2019-03-06T04:58:10.462Z,98685.46
2019-03-06T05:03:16.319Z,98684.59
2019-03-06T05:08:22.038Z,98696.63
2019-03-06T05:13:27.715Z,98701.86
2019-03-06T05:18:35.042Z,98705.34
2019-03-06T05:23:40.788Z,98702.66
2019-03-06T05:28:46.547Z,98706.12
2019-03-06T05:33:52.339Z,98716.52
2019-03-06T05:39:11.542Z,98721.28
2019-03-06T05:44:17.382Z,98720.28
2019-03-06T05:49:24.273Z,98716.14
2019-03-06T05:54:31.223Z,98736.22
2019-03-06T05:59:37.183Z,98735.89
2019-03-06T06:04:43.961Z,98740.84
2019-03-06T06:09:49.848Z,98728.20
2019-03-06T06:14:55.614Z,98725.85
2019-03-06T06:20:01.401Z,98745.65
2019-03-06T06:25:07.311Z,98752.47
2019-03-06T06:30:15.417Z,98769.48
2019-03-06T06:35:21.255Z,98771.84
2019-03-06T06:40:27.039Z,98783.70
2019-03-06T06:45:32.840Z,98785.35
2019-03-06T06:50:44.652Z,98794.75
2019-03-06T06:56:14.290Z,98817.59
2019-03-06T07:01:27.385Z,98846.09
2019-03-06T07:06:50.593Z,98854.62
2019-03-06T07:12:00.552Z,98782.89
2019-03-06T07:17:25.260Z,98870.33
2019-03-06T07:22:38.665Z,98894.11
2019-03-06T07:27:49.144Z,98929.70
2019-03-06T07:33:05.458Z,98948.98
2019-03-06T07:38:11.987Z,98967.02
2019-03-06T07:43:19.670Z,98971.13
2019-03-06T07:48:26.982Z,98976.54
2019-03-06T07:53:51.845Z,99002.78
2019-03-06T07:58:59.885Z,99015.55
2019-03-06T08:04:13.984Z,99019.66
2019-03-06T08:09:20.871Z,99017.60
2019-03-06T08:14:46.557Z,99056.50
2019-03-06T08:19:56.770Z,99081.50
2019-03-06T08:25:10.118Z,99091.70
2019-03-06T08:30:16.245Z,99105.10
2019-03-06T08:35:21.918Z,99150.81
2019-03-06T08:40:27.627Z,99176.61
2019-03-06T08:45:46.924Z,99171.44
2019-03-06T08:50:54.283Z,99177.02
2019-03-06T08:56:04.201Z,99247.14
2019-03-06T09:01:42.435Z,99260.83
2019-03-06T09:07:06.231Z,99285.91
2019-03-06T09:12:25.496Z,99322.00
2019-03-06T09:17:32.917Z,99353.13
2019-03-06T09:22:43.298Z,99353.51
2019-03-06T09:27:53.896Z,99344.33
2019-03-06T09:33:07.471Z,99400.58
2019-03-06T09:38:17.548Z,99376.87
2019-03-06T09:43:39.727Z,99365.55
2019-03-06T09:48:52.802Z,99417.81
2019-03-06T09:54:03.130Z,99440.30
2019-03-06T09:59:10.491Z,99457.52
2019-03-06T10:04:36.300Z,99469.11
2019-03-06T10:09:46.719Z,99486.84
2019-03-06T10:15:10.264Z,99477.66
2019-03-06T10:20:25.047Z,99532.42
2019-03-06T10:30:35.611Z,99524.38
2019-03-06T10:35:41.549Z,99558.56
2019-03-06T10:40:47.457Z,99569.33
2019-03-06T10:45:53.460Z,99546.88
2019-03-06T10:50:59.355Z,99554.67
2019-03-06T10:56:05.708Z,99571.96
2019-03-06T11:01:11.495Z,99571.33
2019-03-06T11:06:17.493Z,99589.37
2019-03-06T11:11:23.287Z,99559.37
2019-03-06T11:16:29.198Z,99601.09
2019-03-06T11:21:36.790Z,99616.86
2019-03-06T11:26:42.713Z,99665.22
2019-03-06T11:31:49.936Z,99609.56
2019-03-06T11:36:55.663Z,99614.58
2019-03-06T11:42:02.715Z,99581.34
2019-03-06T11:47:08.435Z,99638.17
2019-03-06T11:52:14.472Z,99676.27
2019-03-06T11:57:20.234Z,99727.30
2019-03-06T12:02:26.018Z,99748.91
2019-03-06T12:07:31.727Z,99750.55
2019-03-06T12:12:37.559Z,99787.13
2019-03-06T12:17:43.330Z,99762.42
2019-03-06T12:22:49.157Z,99784.51
2019-03-06T12:27:55.125Z,99759.38
2019-03-06T12:33:00.877Z,99779.72
2019-03-06T12:38:06.562Z,99774.33
2019-03-06T12:43:12.351Z,99754.25
2019-03-06T12:48:18.612Z,99763.55
2019-03-06T12:53:24.306Z,99758.59
2019-03-06T12:58:30.073Z,99752.17
2019-03-06T13:03:35.755Z,99752.77
2019-03-06T13:08:49.988Z,99760.54
2019-03-06T13:13:49.582Z,99759.05
2019-03-06T13:18:55.372Z,99743.05
2019-03-06T13:24:01.116Z,99748.75
2019-03-06T13:29:08.232Z,99743.72
2019-03-06T13:34:18.731Z,99742.47
2019-03-06T13:39:24.380Z,99742.16
2019-03-06T13:44:30.404Z,99766.45
2019-03-06T13:49:36.358Z,99734.95
2019-03-06T13:54:42.067Z,99740.01
2019-03-06T13:59:47.749Z,99729.64
2019-03-06T14:04:54.629Z,99731.46
2019-03-06T14:10:00.415Z,99719.69
2019-03-06T14:15:08.479Z,99755.86
2019-03-06T14:20:22.613Z,99761.75
2019-03-06T14:25:28.760Z,99751.72
2019-03-06T14:30:36.943Z,99760.33
2019-03-06T14:35:42.746Z,99764.49
2019-03-06T14:40:49.077Z,99763.17
2019-03-06T14:45:55.949Z,99738.83
2019-03-06T14:51:02.051Z,99700.20
2019-03-06T14:56:07.896Z,99654.50
2019-03-06T15:01:13.648Z,99618.30
2019-03-06T15:06:21.224Z,99581.06
2019-03-06T15:11:33.073Z,99529.16
2019-03-06T15:16:34.455Z,99498.52
2019-03-06T15:21:40.209Z,99521.61
2019-03-06T15:26:45.882Z,99525.17
2019-03-06T15:31:51.705Z,99522.47
2019-03-06T15:36:58.603Z,99518.16
2019-03-06T15:42:05.096Z,99514.97
2019-03-06T15:47:11.051Z,99512.59
2019-03-06T15:52:16.773Z,99514.77
2019-03-06T15:57:22.784Z,99504.06
2019-03-06T16:02:29.402Z,99532.75
2019-03-06T16:07:35.160Z,99565.87
2019-03-06T16:12:40.934Z,99580.05
2019-03-06T16:17:46.762Z,99598.06
2019-03-06T16:22:52.615Z,99607.84
2019-03-06T16:27:58.493Z,99597.61
2019-03-06T16:33:04.302Z,99596.33
2019-03-06T16:38:10.126Z,99595.34
2019-03-06T16:43:15.882Z,99589.67
2019-03-06T16:48:21.681Z,99587.50
2019-03-06T16:53:27.556Z,99569.09
2019-03-06T16:58:33.295Z,99555.88
2019-03-06T17:03:39.288Z,99533.00
2019-03-06T17:08:45.158Z,99509.80
2019-03-06T17:13:50.920Z,99496.19
2019-03-06T17:18:57.761Z,99467.07
2019-03-06T17:24:03.659Z,99476.04
2019-03-06T17:29:13.066Z,99483.16
2019-03-06T17:34:18.813Z,99491.34
2019-03-06T17:39:24.684Z,99502.43
2019-03-06T17:44:30.400Z,99510.00
2019-03-06T17:49:36.142Z,99510.84
2019-03-06T17:54:41.927Z,99505.09
2019-03-06T17:59:47.877Z,99494.09
2019-03-06T18:04:53.636Z,99488.05
2019-03-06T18:09:59.454Z,99482.69
2019-03-06T18:15:07.723Z,99465.95
2019-03-06T18:20:17.980Z,99461.48
2019-03-06T18:25:25.003Z,99465.61
2019-03-06T18:30:30.679Z,99471.29
2019-03-06T18:35:36.430Z,99463.73
2019-03-06T18:40:42.319Z,99457.14
2019-03-06T18:45:48.142Z,99442.25
2019-03-06T18:50:53.845Z,99434.88
2019-03-06T18:55:59.721Z,99413.92
2019-03-06T19:01:05.481Z,99409.79
2019-03-06T19:06:11.265Z,99408.49
2019-03-06T19:11:17.384Z,99398.73
2019-03-06T19:16:23.258Z,99396.44
2019-03-06T19:21:29.047Z,99388.28
2019-03-06T19:26:34.805Z,99385.14
2019-03-06T19:31:40.612Z,99377.98
2019-03-06T19:36:46.353Z,99373.20
2019-03-06T19:41:53.542Z,99370.66
2019-03-06T19:46:59.289Z,99361.11
2019-03-06T19:52:05.059Z,99357.94
2019-03-06T19:57:10.816Z,99333.16
2019-03-06T20:02:16.939Z,99310.92
2019-03-06T20:07:22.732Z,99313.74
2019-03-06T20:12:28.750Z,99308.56
2019-03-06T20:17:34.688Z,99312.45
2019-03-06T20:22:41.007Z,99301.55
2019-03-06T20:27:46.835Z,99290.06
2019-03-06T20:32:52.951Z,99275.16
2019-03-06T20:37:58.843Z,99255.68
2019-03-06T20:43:04.820Z,99237.34
2019-03-06T20:48:10.628Z,99232.63
2019-03-06T20:53:16.612Z,99217.99
2019-03-06T20:58:22.461Z,99219.80
2019-03-06T21:03:28.283Z,99211.52
2019-03-06T21:08:34.124Z,99203.53
2019-03-06T21:13:40.016Z,99187.22
2019-03-06T21:18:45.916Z,99177.11
2019-03-06T21:23:51.686Z,99164.27
2019-03-06T21:28:57.479Z,99152.52
2019-03-06T21:34:03.439Z,99136.44
2019-03-06T21:39:12.207Z,99127.09
2019-03-06T21:44:18.264Z,99119.05
2019-03-06T21:49:24.054Z,99119.69
2019-03-06T21:54:29.938Z,99109.20
2019-03-06T21:59:35.691Z,99101.81
2019-03-06T22:04:41.608Z,99081.64
2019-03-06T22:09:47.470Z,99073.73
2019-03-06T22:14:53.207Z,99061.83
2019-03-06T22:19:58.886Z,99060.14
2019-03-06T22:25:06.137Z,99043.88
2019-03-06T22:30:24.788Z,99026.44
2019-03-06T22:35:30.616Z,99049.25
2019-03-06T22:40:36.530Z,99040.33
2019-03-06T22:45:42.294Z,99037.27
2019-03-06T22:50:48.062Z,99034.70
2019-03-06T22:55:53.831Z,99018.44
2019-03-06T23:01:02.515Z,99012.93
2019-03-06T23:06:10.656Z,99007.39
2019-03-06T23:11:16.408Z,99011.05
2019-03-06T23:16:22.192Z,98995.20
2019-03-06T23:21:27.912Z,98985.77
2019-03-06T23:26:42.480Z,98973.20
2019-03-06T23:31:41.112Z,98967.23
2019-03-06T23:36:46.881Z,98971.98
2019-03-06T23:41:52.604Z,98964.19
2019-03-06T23:46:58.363Z,98964.69
2019-03-06T23:52:05.608Z,98961.00
2019-03-06T23:57:11.546Z,98937.67
